sensor_id;sensor_type;location;lat;lon;timestamp;pressure;altitude;pressure_sealevel;temperature
45701;BMP280;36277;32.852;-116.998;2023-02-03T00:02:03;100914.00;;;25.52
45701;BMP280;36277;32.852;-116.998;2023-02-03T00:04:29;100920.38;;;25.52
45701;BMP280;36277;32.852;-116.998;2023-02-03T00:06:56;100919.31;;;25.53
45701;BMP280;36277;32.852;-116.998;2023-02-03T00:09:22;100920.00;;;25.55
45701;BMP280;36277;32.852;-116.998;2023-02-03T00:11:48;100926.56;;;25.54
45701;BMP280;36277;32.852;-116.998;2023-02-03T00:14:15;100921.03;;;25.54
45701;BMP280;36277;32.852;-116.998;2023-02-03T00:16:41;100918.97;;;25.56
45701;BMP280;36277;32.852;-116.998;2023-02-03T00:19:08;100923.63;;;25.56
45701;BMP280;36277;32.852;-116.998;2023-02-03T00:21:34;100916.38;;;25.55
45701;BMP280;36277;32.852;-116.998;2023-02-03T00:24:00;100916.38;;;25.55
45701;BMP280;36277;32.852;-116.998;2023-02-03T00:26:26;100924.84;;;25.53
45701;BMP280;36277;32.852;-116.998;2023-02-03T00:28:53;100928.50;;;25.54
45701;BMP280;36277;32.852;-116.998;2023-02-03T00:31:22;100926.78;;;25.53
45701;BMP280;36277;32.852;-116.998;2023-02-03T00:33:55;100936.78;;;25.54
45701;BMP280;36277;32.852;-116.998;2023-02-03T00:36:23;100938.88;;;25.52
45701;BMP280;36277;32.852;-116.998;2023-02-03T00:38:49;100940.59;;;25.53
45701;BMP280;36277;32.852;-116.998;2023-02-03T00:41:16;100938.00;;;25.51
45701;BMP280;36277;32.852;-116.998;2023-02-03T00:43:42;100939.72;;;25.52
45701;BMP280;36277;32.852;-116.998;2023-02-03T00:46:09;100940.75;;;25.51
45701;BMP280;36277;32.852;-116.998;2023-02-03T00:48:35;100938.00;;;25.51
45701;BMP280;36277;32.852;-116.998;2023-02-03T00:51:01;100941.78;;;25.50
45701;BMP280;36277;32.852;-116.998;2023-02-03T00:53:28;100937.16;;;25.51
45701;BMP280;36277;32.852;-116.998;2023-02-03T00:55:54;100927.97;;;25.50
45701;BMP280;36277;32.852;-116.998;2023-02-03T00:58:20;100923.31;;;25.51
45701;BMP280;36277;32.852;-116.998;2023-02-03T01:00:46;100925.22;;;25.50
45701;BMP280;36277;32.852;-116.998;2023-02-03T01:03:13;100923.50;;;25.49
45701;BMP280;36277;32.852;-116.998;2023-02-03T01:05:39;100932.66;;;25.50
45701;BMP280;36277;32.852;-116.998;2023-02-03T01:08:05;100926.44;;;25.48
45701;BMP280;36277;32.852;-116.998;2023-02-03T01:10:31;100924.56;;;25.48
45701;BMP280;36277;32.852;-116.998;2023-02-03T01:12:58;100931.13;;;25.47
45701;BMP280;36277;32.852;-116.998;2023-02-03T01:15:24;100931.13;;;25.47
45701;BMP280;36277;32.852;-116.998;2023-02-03T01:17:50;100939.44;;;25.47
45701;BMP280;36277;32.852;-116.998;2023-02-03T01:20:16;100932.19;;;25.46
45701;BMP280;36277;32.852;-116.998;2023-02-03T01:22:43;100936.66;;;25.47
45701;BMP280;36277;32.852;-116.998;2023-02-03T01:25:09;100947.72;;;25.47
45701;BMP280;36277;32.852;-116.998;2023-02-03T01:27:35;100951.13;;;25.49
45701;BMP280;36277;32.852;-116.998;2023-02-03T01:30:02;100960.97;;;25.52
45701;BMP280;36277;32.852;-116.998;2023-02-03T01:32:28;100960.97;;;25.52
45701;BMP280;36277;32.852;-116.998;2023-02-03T01:34:54;100968.22;;;25.53
45701;BMP280;36277;32.852;-116.998;2023-02-03T01:37:21;100978.06;;;25.55
45701;BMP280;36277;32.852;-116.998;2023-02-03T01:39:47;100974.25;;;25.56
45701;BMP280;36277;32.852;-116.998;2023-02-03T01:42:14;100978.72;;;25.57
45701;BMP280;36277;32.852;-116.998;2023-02-03T01:47:13;100975.59;;;25.60
45701;BMP280;36277;32.852;-116.998;2023-02-03T01:49:46;100977.81;;;25.65
45701;BMP280;36277;32.852;-116.998;2023-02-03T01:52:15;100992.31;;;25.67
45701;BMP280;36277;32.852;-116.998;2023-02-03T01:54:44;100991.94;;;25.70
45701;BMP280;36277;32.852;-116.998;2023-02-03T01:57:36;100989.38;;;25.68
45701;BMP280;36277;32.852;-116.998;2023-02-03T02:00:05;100991.63;;;25.65
45701;BMP280;36277;32.852;-116.998;2023-02-03T02:02:33;101000.44;;;25.68
45701;BMP280;36277;32.852;-116.998;2023-02-03T02:05:15;100996.06;;;25.74
45701;BMP280;36277;32.852;-116.998;2023-02-03T02:07:44;100995.38;;;25.72
45701;BMP280;36277;32.852;-116.998;2023-02-03T02:10:12;101002.66;;;25.73
45701;BMP280;36277;32.852;-116.998;2023-02-03T02:12:38;100996.91;;;25.74
45701;BMP280;36277;32.852;-116.998;2023-02-03T02:15:05;100996.75;;;25.76
45701;BMP280;36277;32.852;-116.998;2023-02-03T02:17:41;101006.78;;;25.77
45701;BMP280;36277;32.852;-116.998;2023-02-03T02:20:33;101003.31;;;25.75
45701;BMP280;36277;32.852;-116.998;2023-02-03T02:23:26;100999.88;;;25.73
45701;BMP280;36277;32.852;-116.998;2023-02-03T02:29:34;101018.25;;;25.66
45701;BMP280;36277;32.852;-116.998;2023-02-03T02:34:47;101020.16;;;25.65
45701;BMP280;36277;32.852;-116.998;2023-02-03T02:40:02;101026.25;;;25.61
45701;BMP280;36277;32.852;-116.998;2023-02-03T02:45:19;101015.53;;;25.58
45701;BMP280;36277;32.852;-116.998;2023-02-03T02:47:47;101023.16;;;25.56
45701;BMP280;36277;32.852;-116.998;2023-02-03T02:50:28;101012.59;;;25.59
45701;BMP280;36277;32.852;-116.998;2023-02-03T02:52:57;101016.41;;;25.58
45701;BMP280;36277;32.852;-116.998;2023-02-03T02:55:27;101013.47;;;25.60
45701;BMP280;36277;32.852;-116.998;2023-02-03T02:58:01;101018.13;;;25.59
45701;BMP280;36277;32.852;-116.998;2023-02-03T03:00:31;101024.69;;;25.58
45701;BMP280;36277;32.852;-116.998;2023-02-03T03:03:22;101016.41;;;25.58
45701;BMP280;36277;32.852;-116.998;2023-02-03T03:06:03;101013.63;;;25.58
45701;BMP280;36277;32.852;-116.998;2023-02-03T03:08:55;101025.03;;;25.55
45701;BMP280;36277;32.852;-116.998;2023-02-03T03:11:26;101021.44;;;25.55
45701;BMP280;36277;32.852;-116.998;2023-02-03T03:13:55;101024.88;;;25.57
45701;BMP280;36277;32.852;-116.998;2023-02-03T03:16:25;101016.75;;;25.55
45701;BMP280;36277;32.852;-116.998;2023-02-03T03:18:59;101030.22;;;25.58
45701;BMP280;36277;32.852;-116.998;2023-02-03T03:21:45;101022.28;;;25.55
45701;BMP280;36277;32.852;-116.998;2023-02-03T03:24:17;101027.31;;;25.52
45701;BMP280;36277;32.852;-116.998;2023-02-03T03:27:12;101025.78;;;25.49
45701;BMP280;36277;32.852;-116.998;2023-02-03T03:32:14;101022.53;;;25.46
45701;BMP280;36277;32.852;-116.998;2023-02-03T03:34:41;101025.97;;;25.48
45701;BMP280;36277;32.852;-116.998;2023-02-03T03:45:21;101032.22;;;25.42
45701;BMP280;36277;32.852;-116.998;2023-02-03T03:48:11;101026.19;;;25.38
45701;BMP280;36277;32.852;-116.998;2023-02-03T03:51:01;101023.59;;;25.37
45701;BMP280;36277;32.852;-116.998;2023-02-03T03:53:31;101013.56;;;25.36
45701;BMP280;36277;32.852;-116.998;2023-02-03T03:56:00;101016.19;;;25.37
45701;BMP280;36277;32.852;-116.998;2023-02-03T03:58:31;101007.19;;;25.35
45701;BMP280;36277;32.852;-116.998;2023-02-03T04:01:01;101002.72;;;25.34
45701;BMP280;36277;32.852;-116.998;2023-02-03T04:03:45;101004.63;;;25.34
45701;BMP280;36277;32.852;-116.998;2023-02-03T04:06:12;101004.13;;;25.30
45701;BMP280;36277;32.852;-116.998;2023-02-03T04:08:38;101009.63;;;25.30
45701;BMP280;36277;32.852;-116.998;2023-02-03T04:11:05;101011.72;;;25.28
45701;BMP280;36277;32.852;-116.998;2023-02-03T04:13:32;101014.84;;;25.26
45701;BMP280;36277;32.852;-116.998;2023-02-03T04:15:58;101014.50;;;25.28
45701;BMP280;36277;32.852;-116.998;2023-02-03T04:18:24;101008.28;;;25.27
45701;BMP280;36277;32.852;-116.998;2023-02-03T04:20:51;101004.84;;;25.25
45701;BMP280;36277;32.852;-116.998;2023-02-03T04:23:17;101012.47;;;25.23
45701;BMP280;36277;32.852;-116.998;2023-02-03T04:25:44;101000.34;;;25.24
45701;BMP280;36277;32.852;-116.998;2023-02-03T04:28:10;101023.53;;;25.23
45701;BMP280;36277;32.852;-116.998;2023-02-03T04:30:36;101024.72;;;25.20
45701;BMP280;36277;32.852;-116.998;2023-02-03T04:33:03;101026.63;;;25.20
45701;BMP280;36277;32.852;-116.998;2023-02-03T04:35:29;101020.44;;;25.18
45701;BMP280;36277;32.852;-116.998;2023-02-03T04:37:56;101020.78;;;25.15
45701;BMP280;36277;32.852;-116.998;2023-02-03T04:40:22;101025.59;;;25.13
45701;BMP280;36277;32.852;-116.998;2023-02-03T04:42:48;101017.84;;;25.08
45701;BMP280;36277;32.852;-116.998;2023-02-03T04:45:15;101025.47;;;25.06
45701;BMP280;36277;32.852;-116.998;2023-02-03T04:47:41;101026.50;;;25.05
45701;BMP280;36277;32.852;-116.998;2023-02-03T04:50:08;101032.03;;;25.05
45701;BMP280;36277;32.852;-116.998;2023-02-03T04:52:34;101027.53;;;25.04
45701;BMP280;36277;32.852;-116.998;2023-02-03T04:55:01;101019.75;;;25.00
45701;BMP280;36277;32.852;-116.998;2023-02-03T04:57:28;101015.59;;;25.04
45701;BMP280;36277;32.852;-116.998;2023-02-03T04:59:55;101012.16;;;25.02
45701;BMP280;36277;32.852;-116.998;2023-02-03T05:02:21;101012.91;;;24.96
45701;BMP280;36277;32.852;-116.998;2023-02-03T05:04:47;101014.97;;;24.94
45701;BMP280;36277;32.852;-116.998;2023-02-03T05:07:14;101009.81;;;24.91
45701;BMP280;36277;32.852;-116.998;2023-02-03T05:09:40;101006.50;;;24.87
45701;BMP280;36277;32.852;-116.998;2023-02-03T05:12:08;100995.66;;;24.86
45701;BMP280;36277;32.852;-116.998;2023-02-03T05:14:34;101002.41;;;24.83
45701;BMP280;36277;32.852;-116.998;2023-02-03T05:17:00;100994.47;;;24.80
45701;BMP280;36277;32.852;-116.998;2023-02-03T05:19:27;100998.44;;;24.78
45701;BMP280;36277;32.852;-116.998;2023-02-03T05:21:53;100994.16;;;24.75
45701;BMP280;36277;32.852;-116.998;2023-02-03T05:24:19;101008.31;;;24.72
45701;BMP280;36277;32.852;-116.998;2023-02-03T05:26:45;101006.78;;;24.70
45701;BMP280;36277;32.852;-116.998;2023-02-03T05:29:12;101013.50;;;24.67
45701;BMP280;36277;32.852;-116.998;2023-02-03T05:31:38;101011.75;;;24.66
45701;BMP280;36277;32.852;-116.998;2023-02-03T05:34:04;101022.31;;;24.63
45701;BMP280;36277;32.852;-116.998;2023-02-03T05:36:31;101017.97;;;24.60
45701;BMP280;36277;32.852;-116.998;2023-02-03T05:38:57;101023.69;;;24.59
45701;BMP280;36277;32.852;-116.998;2023-02-03T05:41:24;101027.84;;;24.55
45701;BMP280;36277;32.852;-116.998;2023-02-03T05:44:09;101022.16;;;24.48
45701;BMP280;36277;32.852;-116.998;2023-02-03T05:46:35;101022.31;;;24.47
45701;BMP280;36277;32.852;-116.998;2023-02-03T05:49:01;101010.59;;;24.45
45701;BMP280;36277;32.852;-116.998;2023-02-03T05:51:27;101006.09;;;24.44
45701;BMP280;36277;32.852;-116.998;2023-02-03T05:53:54;100994.53;;;24.40
45701;BMP280;36277;32.852;-116.998;2023-02-03T05:56:20;100986.09;;;24.34
45701;BMP280;36277;32.852;-116.998;2023-02-03T05:58:47;100981.13;;;24.29
45701;BMP280;36277;32.852;-116.998;2023-02-03T06:01:16;100977.84;;;24.26
45701;BMP280;36277;32.852;-116.998;2023-02-03T06:03:42;100967.13;;;24.23
45701;BMP280;36277;32.852;-116.998;2023-02-03T06:06:08;100956.63;;;24.18
45701;BMP280;36277;32.852;-116.998;2023-02-03T06:08:34;100959.75;;;24.15
45701;BMP280;36277;32.852;-116.998;2023-02-03T06:11:01;100970.09;;;24.13
45701;BMP280;36277;32.852;-116.998;2023-02-03T06:13:27;100965.78;;;24.11
45701;BMP280;36277;32.852;-116.998;2023-02-03T06:15:53;100968.72;;;24.10
45701;BMP280;36277;32.852;-116.998;2023-02-03T06:18:21;100972.69;;;24.07
45701;BMP280;36277;32.852;-116.998;2023-02-03T06:20:47;100977.50;;;24.05
45701;BMP280;36277;32.852;-116.998;2023-02-03T06:23:13;100980.63;;;24.02
45701;BMP280;36277;32.852;-116.998;2023-02-03T06:25:42;100982.69;;;24.00
45701;BMP280;36277;32.852;-116.998;2023-02-03T06:28:08;100987.34;;;24.00
45701;BMP280;36277;32.852;-116.998;2023-02-03T06:30:34;100979.41;;;23.97
45701;BMP280;36277;32.852;-116.998;2023-02-03T06:33:01;100983.22;;;23.96
45701;BMP280;36277;32.852;-116.998;2023-02-03T06:35:27;100980.63;;;23.94
45701;BMP280;36277;32.852;-116.998;2023-02-03T06:37:53;100976.16;;;23.93
45701;BMP280;36277;32.852;-116.998;2023-02-03T06:40:19;100983.72;;;23.91
45701;BMP280;36277;32.852;-116.998;2023-02-03T06:42:46;100986.66;;;23.90
45701;BMP280;36277;32.852;-116.998;2023-02-03T06:45:13;100977.69;;;23.88
45701;BMP280;36277;32.852;-116.998;2023-02-03T06:47:40;100980.63;;;23.86
45701;BMP280;36277;32.852;-116.998;2023-02-03T06:50:08;100981.16;;;23.82
45701;BMP280;36277;32.852;-116.998;2023-02-03T06:52:36;100988.72;;;23.80
45701;BMP280;36277;32.852;-116.998;2023-02-03T06:55:03;100981.50;;;23.79
45701;BMP280;36277;32.852;-116.998;2023-02-03T06:57:30;100986.28;;;23.77
45701;BMP280;36277;32.852;-116.998;2023-02-03T06:59:56;100989.38;;;23.74
45701;BMP280;36277;32.852;-116.998;2023-02-03T07:02:23;100997.78;;;23.72
45701;BMP280;36277;32.852;-116.998;2023-02-03T07:04:49;100985.94;;;23.72
45701;BMP280;36277;32.852;-116.998;2023-02-03T07:07:15;100993.69;;;23.68
45701;BMP280;36277;32.852;-116.998;2023-02-03T07:09:41;100998.50;;;23.66
45701;BMP280;36277;32.852;-116.998;2023-02-03T07:12:08;100988.50;;;23.65
45701;BMP280;36277;32.852;-116.998;2023-02-03T07:14:35;100991.59;;;23.62
45701;BMP280;36277;32.852;-116.998;2023-02-03T07:17:02;100981.41;;;23.63
45701;BMP280;36277;32.852;-116.998;2023-02-03T07:19:28;100973.69;;;23.58
45701;BMP280;36277;32.852;-116.998;2023-02-03T07:21:54;100967.47;;;23.56
45701;BMP280;36277;32.852;-116.998;2023-02-03T07:24:21;100965.06;;;23.53
45701;BMP280;36277;32.852;-116.998;2023-02-03T07:26:47;100965.25;;;23.52
45701;BMP280;36277;32.852;-116.998;2023-02-03T07:29:13;100961.09;;;23.48
45701;BMP280;36277;32.852;-116.998;2023-02-03T07:31:40;100951.25;;;23.45
45701;BMP280;36277;32.852;-116.998;2023-02-03T07:34:06;100950.41;;;23.45
45701;BMP280;36277;32.852;-116.998;2023-02-03T07:36:32;100943.50;;;23.41
45701;BMP280;36277;32.852;-116.998;2023-02-03T07:38:58;100949.03;;;23.41
45701;BMP280;36277;32.852;-116.998;2023-02-03T07:41:25;100935.75;;;23.36
45701;BMP280;36277;32.852;-116.998;2023-02-03T07:43:51;100949.53;;;23.36
45701;BMP280;36277;32.852;-116.998;2023-02-03T07:46:17;100946.09;;;23.34
45701;BMP280;36277;32.852;-116.998;2023-02-03T07:48:43;100949.19;;;23.31
45701;BMP280;36277;32.852;-116.998;2023-02-03T07:51:10;100942.28;;;23.27
45701;BMP280;36277;32.852;-116.998;2023-02-03T07:53:36;100935.03;;;23.26
45701;BMP280;36277;32.852;-116.998;2023-02-03T07:56:04;100929.88;;;23.23
45701;BMP280;36277;32.852;-116.998;2023-02-03T07:58:31;100924.69;;;23.20
45701;BMP280;36277;32.852;-116.998;2023-02-03T08:00:58;100926.78;;;23.18
45701;BMP280;36277;32.852;-116.998;2023-02-03T08:03:24;100923.34;;;23.16
45701;BMP280;36277;32.852;-116.998;2023-02-03T08:05:51;100920.91;;;23.13
45701;BMP280;36277;32.852;-116.998;2023-02-03T08:08:18;100908.34;;;23.11
45701;BMP280;36277;32.852;-116.998;2023-02-03T08:10:44;100906.78;;;23.08
45701;BMP280;36277;32.852;-116.998;2023-02-03T08:13:10;100908.81;;;23.06
45701;BMP280;36277;32.852;-116.998;2023-02-03T08:15:36;100917.41;;;23.03
45701;BMP280;36277;32.852;-116.998;2023-02-03T08:18:03;100909.31;;;23.02
45701;BMP280;36277;32.852;-116.998;2023-02-03T08:20:29;100905.88;;;23.00
45701;BMP280;36277;32.852;-116.998;2023-02-03T08:22:55;100906.03;;;22.98
45701;BMP280;36277;32.852;-116.998;2023-02-03T08:25:21;100906.34;;;22.96
45701;BMP280;36277;32.852;-116.998;2023-02-03T08:27:48;100898.09;;;22.96
45701;BMP280;36277;32.852;-116.998;2023-02-03T08:30:14;100884.69;;;22.93
45701;BMP280;36277;32.852;-116.998;2023-02-03T08:32:40;100891.25;;;22.92
45701;BMP280;36277;32.852;-116.998;2023-02-03T08:35:07;100878.50;;;22.91
45701;BMP280;36277;32.852;-116.998;2023-02-03T08:37:37;100876.94;;;22.88
45701;BMP280;36277;32.852;-116.998;2023-02-03T08:40:04;100888.13;;;22.87
45701;BMP280;36277;32.852;-116.998;2023-02-03T08:42:31;100882.94;;;22.84
45701;BMP280;36277;32.852;-116.998;2023-02-03T08:44:57;100880.34;;;22.82
45701;BMP280;36277;32.852;-116.998;2023-02-03T08:47:24;100877.78;;;22.81
45701;BMP280;36277;32.852;-116.998;2023-02-03T08:49:51;100878.97;;;22.78
45701;BMP280;36277;32.852;-116.998;2023-02-03T08:52:17;100880.84;;;22.78
45701;BMP280;36277;32.852;-116.998;2023-02-03T08:54:44;100863.81;;;22.74
45701;BMP280;36277;32.852;-116.998;2023-02-03T08:57:11;100872.22;;;22.73
45701;BMP280;36277;32.852;-116.998;2023-02-03T08:59:38;100869.47;;;22.73
45701;BMP280;36277;32.852;-116.998;2023-02-03T09:02:07;100862.44;;;22.70
45701;BMP280;36277;32.852;-116.998;2023-02-03T09:04:36;100861.03;;;22.66
45701;BMP280;36277;32.852;-116.998;2023-02-03T09:07:02;100867.56;;;22.65
45701;BMP280;36277;32.852;-116.998;2023-02-03T09:09:29;100863.09;;;22.64
45701;BMP280;36277;32.852;-116.998;2023-02-03T09:11:56;100862.41;;;22.62
45701;BMP280;36277;32.852;-116.998;2023-02-03T09:14:31;100856.56;;;22.65
45701;BMP280;36277;32.852;-116.998;2023-02-03T09:16:59;100855.38;;;22.68
45701;BMP280;36277;32.852;-116.998;2023-02-03T09:19:26;100857.44;;;22.74
45701;BMP280;36277;32.852;-116.998;2023-02-03T09:21:52;100861.25;;;22.81
45701;BMP280;36277;32.852;-116.998;2023-02-03T09:24:18;100858.22;;;22.92
45701;BMP280;36277;32.852;-116.998;2023-02-03T09:26:45;100860.94;;;22.99
45701;BMP280;36277;32.852;-116.998;2023-02-03T09:29:11;100856.19;;;23.09
45701;BMP280;36277;32.852;-116.998;2023-02-03T09:31:37;100858.97;;;23.17
45701;BMP280;36277;32.852;-116.998;2023-02-03T09:34:03;100857.91;;;23.26
45701;BMP280;36277;32.852;-116.998;2023-02-03T09:36:30;100854.16;;;23.35
45701;BMP280;36277;32.852;-116.998;2023-02-03T09:38:57;100851.41;;;23.43
45701;BMP280;36277;32.852;-116.998;2023-02-03T09:47:23;100870.00;;;23.41
45701;BMP280;36277;32.852;-116.998;2023-02-03T09:50:00;100873.78;;;23.40
45701;BMP280;36277;32.852;-116.998;2023-02-03T09:52:33;100878.59;;;23.38
45701;BMP280;36277;32.852;-116.998;2023-02-03T09:55:12;100879.78;;;23.36
45701;BMP280;36277;32.852;-116.998;2023-02-03T10:00:22;100868.59;;;23.29
45701;BMP280;36277;32.852;-116.998;2023-02-03T10:05:42;100861.72;;;23.25
45701;BMP280;36277;32.852;-116.998;2023-02-03T10:08:31;100861.19;;;23.22
45701;BMP280;36277;32.852;-116.998;2023-02-03T10:23:10;100820.56;;;23.08
45701;BMP280;36277;32.852;-116.998;2023-02-03T10:25:54;100818.97;;;23.05
45701;BMP280;36277;32.852;-116.998;2023-02-03T10:28:29;100818.28;;;23.03
45701;BMP280;36277;32.852;-116.998;2023-02-03T10:30:58;100811.06;;;23.02
45701;BMP280;36277;32.852;-116.998;2023-02-03T10:33:30;100811.06;;;23.02
45701;BMP280;36277;32.852;-116.998;2023-02-03T10:36:04;100809.53;;;23.00
45701;BMP280;36277;32.852;-116.998;2023-02-03T10:41:15;100828.63;;;22.94
45701;BMP280;36277;32.852;-116.998;2023-02-03T10:43:42;100828.94;;;22.91
45701;BMP280;36277;32.852;-116.998;2023-02-03T10:46:34;100831.72;;;22.91
45701;BMP280;36277;32.852;-116.998;2023-02-03T10:49:01;100832.38;;;22.85
45701;BMP280;36277;32.852;-116.998;2023-02-03T10:51:54;100848.19;;;22.83
45701;BMP280;36277;32.852;-116.998;2023-02-03T10:54:31;100850.06;;;22.82
45701;BMP280;36277;32.852;-116.998;2023-02-03T10:57:12;100850.25;;;22.81
45701;BMP280;36277;32.852;-116.998;2023-02-03T10:59:47;100843.34;;;22.77
45701;BMP280;36277;32.852;-116.998;2023-02-03T11:02:28;100843.69;;;22.74
45701;BMP280;36277;32.852;-116.998;2023-02-03T11:07:42;100849.69;;;22.69
45701;BMP280;36277;32.852;-116.998;2023-02-03T11:10:31;100848.81;;;22.69
45701;BMP280;36277;32.852;-116.998;2023-02-03T11:13:22;100829.06;;;22.65
45701;BMP280;36277;32.852;-116.998;2023-02-03T11:16:01;100830.25;;;22.63
45701;BMP280;36277;32.852;-116.998;2023-02-03T11:18:35;100824.91;;;22.61
45701;BMP280;36277;32.852;-116.998;2023-02-03T11:21:17;100845.38;;;22.59
45701;BMP280;36277;32.852;-116.998;2023-02-03T11:24:01;100846.72;;;22.55
45701;BMP280;36277;32.852;-116.998;2023-02-03T11:26:40;100860.50;;;22.55
45701;BMP280;36277;32.852;-116.998;2023-02-03T11:31:51;100861.56;;;22.62
45701;BMP280;36277;32.852;-116.998;2023-02-03T11:34:23;100856.06;;;22.70
45701;BMP280;36277;32.852;-116.998;2023-02-03T11:36:51;100854.38;;;22.77
45701;BMP280;36277;32.852;-116.998;2023-02-03T11:39:24;100866.09;;;22.87
45701;BMP280;36277;32.852;-116.998;2023-02-03T11:41:52;100854.75;;;22.98
45701;BMP280;36277;32.852;-116.998;2023-02-03T11:44:26;100853.59;;;23.08
45701;BMP280;36277;32.852;-116.998;2023-02-03T11:47:07;100847.06;;;23.17
45701;BMP280;36277;32.852;-116.998;2023-02-03T11:57:58;100848.66;;;23.43
45701;BMP280;36277;32.852;-116.998;2023-02-03T12:00:39;100855.19;;;23.42
45701;BMP280;36277;32.852;-116.998;2023-02-03T12:03:15;100852.78;;;23.39
45701;BMP280;36277;32.852;-116.998;2023-02-03T12:06:05;100862.78;;;23.40
45701;BMP280;36277;32.852;-116.998;2023-02-03T12:09:06;100854.16;;;23.35
45701;BMP280;36277;32.852;-116.998;2023-02-03T12:22:25;100845.88;;;23.19
45701;BMP280;36277;32.852;-116.998;2023-02-03T12:25:06;100850.84;;;23.16
45701;BMP280;36277;32.852;-116.998;2023-02-03T12:28:36;100843.13;;;23.11
45701;BMP280;36277;32.852;-116.998;2023-02-03T12:30:52;100846.50;;;23.05
45701;BMP280;36277;32.852;-116.998;2023-02-03T12:33:30;100856.13;;;23.01
45701;BMP280;36277;32.852;-116.998;2023-02-03T12:36:14;100859.22;;;22.98
45701;BMP280;36277;32.852;-116.998;2023-02-03T12:38:54;100846.81;;;22.95
45701;BMP280;36277;32.852;-116.998;2023-02-03T12:41:27;100831.72;;;22.91
45701;BMP280;36277;32.852;-116.998;2023-02-03T12:44:05;100830.31;;;22.87
45701;BMP280;36277;32.852;-116.998;2023-02-03T12:46:40;100832.19;;;22.86
45701;BMP280;36277;32.852;-116.998;2023-02-03T12:49:46;100839.06;;;22.82
45701;BMP280;36277;32.852;-116.998;2023-02-03T12:52:26;100858.31;;;22.82
45701;BMP280;36277;32.852;-116.998;2023-02-03T12:57:43;100855.72;;;22.73
45701;BMP280;36277;32.852;-116.998;2023-02-03T13:00:45;100866.03;;;22.71
45701;BMP280;36277;32.852;-116.998;2023-02-03T13:08:55;100871.19;;;22.66
45701;BMP280;36277;32.852;-116.998;2023-02-03T13:12:09;100874.94;;;22.57
45701;BMP280;36277;32.852;-116.998;2023-02-03T13:15:16;100874.06;;;22.56
45701;BMP280;36277;32.852;-116.998;2023-02-03T13:20:27;100872.00;;;22.50
45701;BMP280;36277;32.852;-116.998;2023-02-03T13:22:56;100890.88;;;22.45
45701;BMP280;36277;32.852;-116.998;2023-02-03T13:25:31;100898.81;;;22.48
45701;BMP280;36277;32.852;-116.998;2023-02-03T13:28:43;100881.66;;;22.54
45701;BMP280;36277;32.852;-116.998;2023-02-03T13:44:55;100881.66;;;23.11
45701;BMP280;36277;32.852;-116.998;2023-02-03T13:47:26;100889.59;;;23.22
45701;BMP280;36277;32.852;-116.998;2023-02-03T13:50:03;100885.81;;;23.31
45701;BMP280;36277;32.852;-116.998;2023-02-03T13:52:39;100883.78;;;23.41
45701;BMP280;36277;32.852;-116.998;2023-02-03T13:55:31;100879.63;;;23.45
45701;BMP280;36277;32.852;-116.998;2023-02-03T13:57:58;100893.41;;;23.45
45701;BMP280;36277;32.852;-116.998;2023-02-03T14:03:39;100893.06;;;23.40
45701;BMP280;36277;32.852;-116.998;2023-02-03T14:06:53;100890.81;;;23.36
45701;BMP280;36277;32.852;-116.998;2023-02-03T14:08:58;100894.09;;;23.31
45701;BMP280;36277;32.852;-116.998;2023-02-03T14:19:02;100887.88;;;23.21
45701;BMP280;36277;32.852;-116.998;2023-02-03T14:22:14;100884.59;;;23.18
45701;BMP280;36277;32.852;-116.998;2023-02-03T14:24:42;100898.19;;;23.11
45701;BMP280;36277;32.852;-116.998;2023-02-03T14:27:23;100897.78;;;23.06
45701;BMP280;36277;32.852;-116.998;2023-02-03T14:30:13;100890.22;;;23.00
45701;BMP280;36277;32.852;-116.998;2023-02-03T14:35:23;100887.97;;;22.96
45701;BMP280;36277;32.852;-116.998;2023-02-03T14:40:58;100899.66;;;22.90
45701;BMP280;36277;32.852;-116.998;2023-02-03T14:43:33;100892.59;;;22.88
45701;BMP280;36277;32.852;-116.998;2023-02-03T14:59:48;100898.72;;;22.74
45701;BMP280;36277;32.852;-116.998;2023-02-03T15:02:20;100907.16;;;22.72
45701;BMP280;36277;32.852;-116.998;2023-02-03T15:07:43;100913.19;;;22.68
45701;BMP280;36277;32.852;-116.998;2023-02-03T15:12:49;100912.47;;;22.66
45701;BMP280;36277;32.852;-116.998;2023-02-03T15:15:27;100926.38;;;22.64
45701;BMP280;36277;32.852;-116.998;2023-02-03T15:17:57;100923.97;;;22.61
45701;BMP280;36277;32.852;-116.998;2023-02-03T15:23:00;100921.91;;;22.55
45701;BMP280;36277;32.852;-116.998;2023-02-03T15:25:29;100927.22;;;22.57
45701;BMP280;36277;32.852;-116.998;2023-02-03T15:28:13;100929.97;;;22.57
45701;BMP280;36277;32.852;-116.998;2023-02-03T15:30:45;100921.34;;;22.52
45701;BMP280;36277;32.852;-116.998;2023-02-03T15:33:14;100915.00;;;22.51
45701;BMP280;36277;32.852;-116.998;2023-02-03T15:35:44;100921.66;;;22.49
45701;BMP280;36277;32.852;-116.998;2023-02-03T15:38:24;100922.69;;;22.48
45701;BMP280;36277;32.852;-116.998;2023-02-03T15:40:53;100929.22;;;22.47
45701;BMP280;36277;32.852;-116.998;2023-02-03T15:43:24;100928.50;;;22.45
45701;BMP280;36277;32.852;-116.998;2023-02-03T15:46:03;100925.75;;;22.45
45701;BMP280;36277;32.852;-116.998;2023-02-03T15:48:42;100927.66;;;22.44
45701;BMP280;36277;32.852;-116.998;2023-02-03T15:51:19;100927.81;;;22.43
45701;BMP280;36277;32.852;-116.998;2023-02-03T15:56:39;100929.53;;;22.36
45701;BMP280;36277;32.852;-116.998;2023-02-03T15:59:32;100927.63;;;22.36
45701;BMP280;36277;32.852;-116.998;2023-02-03T16:02:05;100927.06;;;22.33
45701;BMP280;36277;32.852;-116.998;2023-02-03T16:04:32;100935.31;;;22.33
45701;BMP280;36277;32.852;-116.998;2023-02-03T16:06:59;100940.66;;;22.34